createdAt,value
2022-10-01T06:47:19.766Z,10.11
2022-10-01T06:49:57.196Z,10.17
2022-10-01T06:52:46.339Z,10.26
2022-10-01T06:55:25.947Z,10.34
2022-10-01T06:58:04.946Z,10.43
2022-10-01T07:00:42.647Z,10.49
2022-10-01T07:03:24.969Z,10.57
2022-10-01T07:06:09.227Z,10.67
2022-10-01T07:08:46.229Z,10.73
2022-10-01T07:11:24.407Z,10.80
2022-10-01T07:14:01.886Z,10.89
2022-10-01T07:16:41.313Z,10.95
2022-10-01T07:19:20.907Z,11.07
2022-10-01T07:21:57.995Z,11.14
2022-10-01T07:24:35.138Z,11.21
2022-10-01T07:27:12.598Z,11.30
2022-10-01T07:29:49.588Z,11.39
2022-10-01T07:32:27.349Z,11.47
2022-10-01T07:35:09.378Z,11.58
2022-10-01T07:37:46.323Z,11.63
2022-10-01T07:40:23.585Z,11.73
2022-10-01T07:43:01.062Z,11.83
2022-10-01T07:45:37.966Z,11.91
2022-10-01T07:48:15.456Z,11.99
2022-10-01T07:50:55.323Z,12.10
2022-10-01T07:53:32.945Z,12.17
2022-10-01T07:56:10.246Z,12.27
2022-10-01T07:58:47.609Z,12.37
2022-10-01T08:01:24.740Z,12.47
2022-10-01T08:04:22.327Z,12.55
2022-10-01T08:07:02.226Z,12.61
2022-10-01T08:09:40.282Z,12.62
2022-10-01T08:12:18.158Z,12.70
2022-10-01T08:14:55.278Z,12.75
2022-10-01T08:17:32.296Z,12.81
2022-10-01T08:20:14.097Z,12.88
2022-10-01T08:22:54.059Z,12.94
2022-10-01T08:25:32.049Z,13.03
2022-10-01T08:28:10.215Z,13.11
2022-10-01T08:30:47.986Z,13.15
2022-10-01T08:33:24.718Z,13.25
2022-10-01T08:36:11.556Z,13.33
2022-10-01T08:38:52.586Z,13.43
2022-10-01T08:41:49.924Z,13.53
2022-10-01T08:44:34.086Z,13.62
2022-10-01T08:47:17.859Z,13.72
2022-10-01T08:49:56.860Z,13.85
2022-10-01T08:52:40.027Z,13.90
2022-10-01T08:55:25.945Z,13.98
2022-10-01T08:58:06.006Z,14.01
2022-10-01T09:00:48.022Z,14.06
2022-10-01T09:03:25.368Z,14.07
2022-10-01T09:06:20.402Z,14.14
2022-10-01T09:09:36.358Z,14.20
2022-10-01T09:12:33.298Z,14.39
2022-10-01T09:15:34.707Z,14.90
2022-10-01T09:18:26.369Z,15.77
2022-10-01T09:21:03.978Z,16.49
2022-10-01T09:23:52.187Z,16.99
2022-10-01T09:26:29.315Z,17.23
2022-10-01T09:29:16.149Z,17.76
2022-10-01T09:31:56.368Z,18.30
2022-10-01T09:34:40.605Z,18.85
2022-10-01T09:37:32.887Z,19.15
2022-10-01T09:40:20.084Z,19.53
2022-10-01T09:42:57.252Z,19.73
2022-10-01T09:45:37.493Z,20.05
2022-10-01T09:48:31.072Z,20.49
2022-10-01T09:51:14.642Z,20.55
2022-10-01T09:54:04.122Z,20.81
2022-10-01T09:56:45.800Z,21.05
2022-10-01T09:59:30.482Z,20.92
2022-10-01T10:02:21.717Z,21.13
2022-10-01T10:05:05.953Z,21.19
2022-10-01T10:07:43.410Z,21.35
2022-10-01T10:10:29.183Z,21.28
2022-10-01T10:13:17.772Z,21.26
2022-10-01T10:15:59.741Z,21.07
2022-10-01T10:18:42.363Z,21.00
2022-10-01T10:21:21.872Z,20.73
2022-10-01T10:24:01.882Z,20.63
2022-10-01T10:26:43.672Z,20.20
2022-10-01T10:29:32.053Z,19.95
2022-10-01T10:32:18.737Z,19.73
2022-10-01T10:35:05.310Z,19.72
2022-10-01T10:37:51.869Z,19.65
2022-10-01T10:40:31.568Z,19.75
2022-10-01T10:43:08.908Z,19.63
2022-10-01T10:45:47.819Z,19.62
2022-10-01T10:48:26.388Z,19.60
2022-10-01T10:51:10.228Z,19.69
2022-10-01T10:53:49.850Z,19.82
2022-10-01T10:56:28.264Z,20.05
2022-10-01T10:59:11.540Z,20.18
2022-10-01T11:01:53.148Z,20.31
2022-10-01T11:04:43.451Z,20.36
2022-10-01T11:07:29.250Z,20.40
2022-10-01T11:10:25.245Z,20.62
2022-10-01T11:13:36.475Z,20.71
2022-10-01T11:16:46.555Z,20.71
2022-10-01T11:19:42.516Z,20.60
2022-10-01T11:22:43.518Z,20.61
2022-10-01T11:25:44.231Z,20.63
2022-10-01T11:28:41.360Z,20.49
2022-10-01T11:31:30.924Z,20.55
2022-10-01T11:34:44.050Z,20.47
2022-10-01T11:37:47.912Z,20.44
2022-10-01T11:40:30.561Z,20.14
2022-10-01T11:43:18.030Z,20.14
2022-10-01T11:46:04.965Z,19.94
2022-10-01T11:48:49.195Z,19.93
2022-10-01T11:51:33.736Z,19.65
2022-10-01T11:54:17.998Z,19.52
2022-10-01T11:57:10.959Z,19.38
2022-10-01T11:59:56.220Z,19.29
2022-10-01T12:02:42.680Z,19.21
2022-10-01T12:05:23.469Z,19.21
2022-10-01T12:08:09.487Z,19.07
2022-10-01T12:10:59.570Z,18.84
2022-10-01T12:13:42.648Z,18.70
2022-10-01T12:16:31.735Z,18.73
2022-10-01T12:19:21.953Z,18.70
2022-10-01T12:22:05.605Z,18.70
2022-10-01T12:24:45.674Z,18.66
2022-10-01T12:27:48.319Z,18.73
2022-10-01T12:30:29.507Z,18.87
2022-10-01T12:33:27.217Z,19.07
2022-10-01T12:36:13.532Z,19.07
2022-10-01T12:39:14.779Z,19.01
2022-10-01T12:42:03.579Z,19.01
2022-10-01T12:45:10.344Z,18.96
2022-10-01T12:47:52.939Z,18.92
2022-10-01T12:50:45.816Z,18.91
2022-10-01T12:53:36.448Z,18.91
2022-10-01T12:56:22.014Z,18.79
2022-10-01T12:59:23.024Z,18.73
2022-10-01T13:02:25.834Z,18.43
2022-10-01T13:05:26.964Z,18.25
2022-10-01T13:08:32.151Z,18.12
2022-10-01T13:11:25.094Z,18.03
2022-10-01T13:14:03.882Z,17.94
2022-10-01T13:16:46.528Z,17.93
2022-10-01T13:19:33.569Z,17.82
2022-10-01T13:22:22.827Z,17.76
2022-10-01T13:25:23.102Z,17.69
2022-10-01T13:28:13.405Z,17.64
2022-10-01T13:31:02.968Z,17.57
2022-10-01T13:33:40.221Z,17.50
2022-10-01T13:36:20.009Z,17.39
2022-10-01T13:38:57.221Z,17.31
2022-10-01T13:41:36.328Z,17.17
2022-10-01T13:44:27.000Z,17.18
2022-10-01T13:47:10.363Z,17.08
2022-10-01T13:49:56.332Z,17.01
2022-10-01T13:52:36.363Z,16.96
2022-10-01T13:55:31.172Z,16.94
2022-10-01T13:58:10.063Z,16.94
2022-10-01T14:00:53.872Z,16.92
2022-10-01T14:03:53.237Z,16.85
2022-10-01T14:06:36.089Z,16.86
2022-10-01T14:09:23.655Z,16.82
2022-10-01T14:12:19.268Z,16.76
2022-10-01T14:15:12.992Z,16.71
2022-10-01T14:17:53.946Z,16.63
2022-10-01T14:20:47.950Z,16.63
2022-10-01T14:23:33.993Z,16.51
2022-10-01T14:26:23.476Z,16.53
2022-10-01T14:29:16.365Z,16.54
2022-10-01T14:32:08.253Z,16.56
2022-10-01T14:34:59.974Z,16.54
2022-10-01T14:37:42.321Z,16.55
2022-10-01T14:40:24.877Z,16.57
2022-10-01T14:43:14.277Z,16.58
2022-10-01T14:46:00.427Z,16.56
2022-10-01T14:48:40.693Z,16.54
2022-10-01T14:51:30.168Z,16.49
2022-10-01T14:54:07.077Z,16.44
2022-10-01T14:56:46.335Z,16.43
2022-10-01T14:59:36.066Z,16.36
2022-10-01T15:02:23.506Z,16.35
2022-10-01T15:05:01.271Z,16.29
2022-10-01T15:07:39.917Z,16.18
2022-10-01T15:10:22.105Z,16.18
2022-10-01T15:12:59.755Z,16.09
2022-10-01T15:15:45.022Z,16.06
2022-10-01T15:18:23.328Z,16.03
2022-10-01T15:21:05.952Z,15.99
2022-10-01T15:23:44.622Z,15.92
2022-10-01T15:26:27.810Z,15.91
2022-10-01T15:29:10.901Z,15.89
2022-10-01T15:31:53.803Z,15.84
2022-10-01T15:34:31.461Z,15.83
2022-10-01T15:37:08.742Z,15.81
2022-10-01T15:39:52.821Z,15.78
2022-10-01T15:42:33.199Z,15.71
2022-10-01T15:45:30.991Z,15.70
2022-10-01T15:48:32.967Z,15.67
2022-10-01T15:51:20.438Z,15.59
2022-10-01T15:54:05.144Z,15.61
2022-10-01T15:56:42.559Z,15.52
2022-10-01T15:59:23.748Z,15.51
2022-10-01T16:02:00.952Z,15.48
2022-10-01T16:04:40.690Z,15.41
2022-10-01T16:07:26.624Z,15.40
2022-10-01T16:10:16.488Z,15.34
2022-10-01T16:12:53.600Z,15.31
2022-10-01T16:15:33.149Z,15.29
2022-10-01T16:18:25.727Z,15.28
2022-10-01T16:21:05.161Z,15.26
2022-10-01T16:23:48.211Z,15.23
2022-10-01T16:26:42.262Z,15.23
2022-10-01T16:29:28.832Z,15.19
2022-10-01T16:32:05.835Z,15.17
2022-10-01T16:34:43.124Z,15.14
2022-10-01T16:37:23.252Z,15.12
2022-10-01T16:40:00.462Z,15.10
2022-10-01T16:42:37.723Z,15.08
2022-10-01T16:45:19.048Z,15.07
2022-10-01T16:47:57.053Z,15.02
2022-10-01T16:50:34.335Z,14.95
2022-10-01T16:53:16.976Z,14.97
2022-10-01T16:55:56.327Z,14.94
2022-10-01T16:58:33.093Z,14.90
2022-10-01T17:01:12.135Z,14.88
2022-10-01T17:03:48.972Z,14.84
2022-10-01T17:06:26.247Z,14.82
2022-10-01T17:09:05.606Z,14.75
2022-10-01T17:11:44.193Z,14.73
2022-10-01T17:14:24.283Z,14.66
2022-10-01T17:17:01.391Z,14.67
2022-10-01T17:19:38.253Z,14.61
2022-10-01T17:22:15.444Z,14.57
2022-10-01T17:24:54.839Z,14.52
2022-10-01T17:27:31.941Z,14.50
2022-10-01T17:30:10.265Z,14.43
2022-10-01T17:32:47.682Z,14.41
2022-10-01T17:35:25.002Z,14.38
2022-10-01T17:38:02.296Z,14.35
2022-10-01T17:40:45.103Z,14.36
2022-10-01T17:43:22.462Z,14.34
